Flight Track Log - Related Links

Times and Time Zones

All times are in EDT time to prevent confusion due to time zone crossing. See the GJS6221 flight status page for this flight to view local times or setup timezone preferences in your user account.

Time Position Orientation Groundspeed Altitude Reporting Facility
EDT Latitude Longitude Course Direction KTS MPH feet Rate Location/Type
Tue 07:21:56 AM 45.4167 -73.7500 203° Southwest 190 219 1,700  Level Montreal Center
Tue 07:22:56 AM 45.3833 -73.8000 227° Southwest 200 230 4,600 2,900 Climbing Montreal Center
Tue 07:23:56 AM 45.3333 -73.8667 223° Southwest 200 230 7,500 2,400 Climbing Montreal Center
Tue 07:24:56 AM 45.2667 -73.9000 199° South 250 288 9,400 1,800 Climbing Montreal Center
Tue 07:25:56 AM 45.1833 -73.9167 188° South 300 345 11,100 1,600 Climbing Montreal Center
Tue 07:26:00 AM 44.8977 -74.0277 203° Southwest  Level FlightAware Approximate
Tue 07:26:56 AM 45.1000 -73.9833 209° Southwest 340 391 12,600  Level Montreal Center
Tue 07:27:00 AM 44.8041 -74.0825 203° Southwest  Level FlightAware Approximate
Tue 07:27:56 AM 45.0000 -74.0000 187° South 360 414 14,700  Level Montreal Center
Tue 07:28:56 AM 44.9000 -74.0500 200° South 360 414 16,600 1,750 Climbing Montreal Center
Tue 07:29:56 AM 44.8000 -74.0833 193° South 380 437 18,200 1,650 Climbing Montreal Center
Tue 07:30:56 AM 44.7000 -74.1333 200° South 390 449 19,900 1,650 Climbing Montreal Center
Tue 07:31:56 AM 44.5833 -74.1167 174° South 410 472 21,500 1,600 Climbing Montreal Center
Tue 07:32:56 AM 44.4667 -74.1000 174° South 410 472 23,100 1,450 Climbing Montreal Center
Tue 07:33:56 AM 44.3500 -74.0667 168° South 420 483 24,400 1,150 Climbing Montreal Center
Tue 07:34:56 AM 44.2333 -74.0500 174° South 430 495 25,400 950 Climbing Montreal Center
Tue 07:35:56 AM 44.1167 -74.0333 174° South 440 506 26,300 900 Climbing Montreal Center
Tue 07:36:56 AM 43.9833 -74.0167 175° South 450 518 27,200 850 Climbing Montreal Center
Tue 07:37:56 AM 43.8667 -74.0000 174° South 450 518 28,000 400 Climbing Montreal Center
Tue 07:38:56 AM 43.7333 -73.9833 175° South 460 529 28,000  Level Montreal Center
Tue 07:39:56 AM 43.6167 -73.9333 163° South 460 529 28,000  Level Montreal Center
Tue 07:40:56 AM 43.4833 -73.9167 175° South 460 529 28,000 -46 Level Montreal Center
Tue 07:42:07 AM 43.3558 -73.9106 178° South 467 537 27,900  Descending Boston Center
Tue 07:43:07 AM 43.2247 -73.8903 174° South 467 537 28,000  Climbing Boston Center
Tue 07:44:07 AM 43.0981 -73.8675 173° South 467 537 27,900 -850 Descending Boston Center
Tue 07:45:07 AM 42.9711 -73.8419 172° South 467 537 26,300 -1,550 Descending Boston Center
Tue 07:46:07 AM 42.8422 -73.8247 174° South 467 537 24,800 -1,500 Descending Boston Center
Tue 07:47:07 AM 42.7236 -73.8022 172° South 449 517 23,300 -1,600 Descending Boston Center
Tue 07:48:07 AM 42.5967 -73.7769 172° South 434 499 21,600 -1,600 Descending Boston Center
Tue 07:49:07 AM 42.4825 -73.7519 171° South 423 487 20,100 -1,400 Descending Boston Center
Tue 07:50:07 AM 42.3806 -73.7272 170° South 423 487 18,800 -1,050 Descending Boston Center
Tue 07:51:07 AM 42.2597 -73.7164 176° South 411 473 18,000 -400 Descending Boston Center
Tue 07:52:07 AM 42.1597 -73.7256 184° South 403 464 18,000  Level Boston Center
Tue 07:53:07 AM 42.0742 -73.7350 185° South 403 464 18,000 -50 Level Boston Center
Tue 07:54:07 AM 41.9344 -73.7461 183° South 392 451 17,900 -900 Descending Boston Center
Tue 07:55:07 AM 41.8322 -73.7553 184° South 385 443 16,200 -1,700 Descending Boston Center
Tue 07:56:07 AM 41.7278 -73.7642 184° South 380 437 14,500 -1,800 Descending Boston Center
Tue 07:57:07 AM 41.6297 -73.7733 184° South 369 425 12,600 -1,696 Descending Boston Center
Tue 07:58:25 AM 41.5000 -73.7833 183° South 326 375 10,600 -1,385 Descending New York TRACON
Tue 07:59:30 AM 41.4167 -73.7833 180° South 281 323 9,300 -1,261 Descending New York TRACON
Tue 08:00:24 AM 41.3500 -73.8000 191° South 275 316 8,100 -1,000 Descending New York TRACON
Tue 08:01:24 AM 41.2833 -73.7333 143° Southeast 291 335 7,400 -1,096 Descending New York TRACON
Tue 08:02:19 AM 41.2167 -73.6833 151° Southeast 281 323 6,000 -1,632 Descending New York TRACON
Tue 08:03:18 AM 41.1667 -73.6333 143° Southeast 275 316 4,300 -950 Descending New York TRACON
Tue 08:04:19 AM 41.1000 -73.6167 169° South 268 308 4,100 -100 Descending New York TRACON
Tue 08:05:18 AM 41.0333 -73.6667 210° Southwest 262 302 4,100 -303 Level New York TRACON
Tue 08:06:18 AM 40.9667 -73.7167 210° Southwest 269 310 3,500 -700 Descending New York TRACON
Tue 08:07:18 AM 40.9000 -73.7667 210° Southwest 243 280 2,700 -842 Descending New York TRACON
Tue 08:08:12 AM 40.8667 -73.8000 217° Southwest 224 258 1,900 -843 Descending New York TRACON
Tue 08:09:19 AM 40.8167 -73.8500 217° Southwest 146 168 1,000 -806 Descending New York TRACON
Tue 08:11:00 AM 40.7772 -73.8726 180° South  Level Estimated
Tue 08:18:00 AM 40.7772 -73.8726 180° South  Level Estimated
Tue 08:19:00 AM 40.7772 -73.8726 180° South  Level Estimated

Login

Don't have an account? Register now (free) for customized features, flight alerts, and more!